sensor_id;sensor_type;location;lat;lon;timestamp;temperature;humidity
63966;DHT22;50151;52.030;5.350;2022-12-18T00:01:34;-3.10;99.90
63966;DHT22;50151;52.030;5.350;2022-12-18T00:04:03;-3.10;99.90
63966;DHT22;50151;52.030;5.350;2022-12-18T00:06:32;-3.10;99.90
63966;DHT22;50151;52.030;5.350;2022-12-18T00:09:00;-3.20;99.90
63966;DHT22;50151;52.030;5.350;2022-12-18T00:11:29;-3.10;99.90
63966;DHT22;50151;52.030;5.350;2022-12-18T00:13:58;-3.20;99.90
63966;DHT22;50151;52.030;5.350;2022-12-18T00:16:25;-3.20;99.90
63966;DHT22;50151;52.030;5.350;2022-12-18T00:18:55;-3.20;99.90
63966;DHT22;50151;52.030;5.350;2022-12-18T00:21:21;-3.20;99.90
63966;DHT22;50151;52.030;5.350;2022-12-18T00:23:49;-3.20;99.90
63966;DHT22;50151;52.030;5.350;2022-12-18T00:26:21;-3.20;99.90
63966;DHT22;50151;52.030;5.350;2022-12-18T00:28:49;-3.30;99.90
63966;DHT22;50151;52.030;5.350;2022-12-18T00:31:18;-3.30;99.90
63966;DHT22;50151;52.030;5.350;2022-12-18T00:33:46;-3.20;99.90
63966;DHT22;50151;52.030;5.350;2022-12-18T00:36:18;-3.10;99.90
63966;DHT22;50151;52.030;5.350;2022-12-18T00:38:45;-3.20;99.90
63966;DHT22;50151;52.030;5.350;2022-12-18T00:41:13;-3.20;99.90
63966;DHT22;50151;52.030;5.350;2022-12-18T00:44:01;-3.10;99.90
63966;DHT22;50151;52.030;5.350;2022-12-18T00:46:28;-3.20;99.90
63966;DHT22;50151;52.030;5.350;2022-12-18T00:48:54;-3.20;99.90
63966;DHT22;50151;52.030;5.350;2022-12-18T00:51:21;-3.20;99.90
63966;DHT22;50151;52.030;5.350;2022-12-18T00:53:48;-3.30;99.90
63966;DHT22;50151;52.030;5.350;2022-12-18T00:56:15;-3.30;99.90
63966;DHT22;50151;52.030;5.350;2022-12-18T00:58:41;-3.30;99.90
63966;DHT22;50151;52.030;5.350;2022-12-18T01:01:08;-3.30;99.90
63966;DHT22;50151;52.030;5.350;2022-12-18T01:03:35;-3.30;99.90
63966;DHT22;50151;52.030;5.350;2022-12-18T01:06:09;-3.30;99.90
63966;DHT22;50151;52.030;5.350;2022-12-18T01:08:38;-3.30;99.90
63966;DHT22;50151;52.030;5.350;2022-12-18T01:11:14;-3.30;99.90
63966;DHT22;50151;52.030;5.350;2022-12-18T01:13:41;-3.40;99.90
63966;DHT22;50151;52.030;5.350;2022-12-18T01:16:10;-3.50;99.90
63966;DHT22;50151;52.030;5.350;2022-12-18T01:18:37;-3.50;99.90
63966;DHT22;50151;52.030;5.350;2022-12-18T01:21:14;-3.50;99.90
63966;DHT22;50151;52.030;5.350;2022-12-18T01:23:41;-3.60;99.90
63966;DHT22;50151;52.030;5.350;2022-12-18T01:26:11;-3.70;99.90
63966;DHT22;50151;52.030;5.350;2022-12-18T01:28:39;-3.70;99.90
63966;DHT22;50151;52.030;5.350;2022-12-18T01:31:18;-3.60;99.90
63966;DHT22;50151;52.030;5.350;2022-12-18T01:33:45;-3.60;99.90
63966;DHT22;50151;52.030;5.350;2022-12-18T01:36:17;-3.60;99.90
63966;DHT22;50151;52.030;5.350;2022-12-18T01:38:45;-3.60;99.90
63966;DHT22;50151;52.030;5.350;2022-12-18T01:41:17;-3.60;99.90
63966;DHT22;50151;52.030;5.350;2022-12-18T01:43:56;-3.60;99.90
63966;DHT22;50151;52.030;5.350;2022-12-18T01:46:24;-3.60;99.90
63966;DHT22;50151;52.030;5.350;2022-12-18T01:48:57;-3.60;99.90
63966;DHT22;50151;52.030;5.350;2022-12-18T01:51:26;-3.60;99.90
63966;DHT22;50151;52.030;5.350;2022-12-18T01:53:53;-3.60;99.90
63966;DHT22;50151;52.030;5.350;2022-12-18T01:56:21;-3.60;99.90
63966;DHT22;50151;52.030;5.350;2022-12-18T01:59:00;-3.60;99.90
63966;DHT22;50151;52.030;5.350;2022-12-18T02:01:29;-3.60;99.90
63966;DHT22;50151;52.030;5.350;2022-12-18T02:06:54;-3.70;99.90
63966;DHT22;50151;52.030;5.350;2022-12-18T02:09:23;-3.80;99.90
63966;DHT22;50151;52.030;5.350;2022-12-18T02:12:02;-3.80;99.90
63966;DHT22;50151;52.030;5.350;2022-12-18T02:17:23;-3.80;99.90
63966;DHT22;50151;52.030;5.350;2022-12-18T02:25:57;-3.90;99.90
63966;DHT22;50151;52.030;5.350;2022-12-18T02:28:31;-4.00;99.90
63966;DHT22;50151;52.030;5.350;2022-12-18T02:31:01;-3.90;99.90
63966;DHT22;50151;52.030;5.350;2022-12-18T02:33:33;-4.00;99.90
63966;DHT22;50151;52.030;5.350;2022-12-18T02:36:02;-3.90;99.90
63966;DHT22;50151;52.030;5.350;2022-12-18T02:38:30;-4.00;99.90
63966;DHT22;50151;52.030;5.350;2022-12-18T02:40:57;-4.00;99.90
63966;DHT22;50151;52.030;5.350;2022-12-18T02:43:25;-4.00;99.90
63966;DHT22;50151;52.030;5.350;2022-12-18T02:45:58;-4.00;99.90
63966;DHT22;50151;52.030;5.350;2022-12-18T02:48:31;-4.10;99.90
63966;DHT22;50151;52.030;5.350;2022-12-18T02:51:24;-4.10;99.90
63966;DHT22;50151;52.030;5.350;2022-12-18T02:56:55;-4.10;99.90
63966;DHT22;50151;52.030;5.350;2022-12-18T02:59:33;-4.20;99.90
63966;DHT22;50151;52.030;5.350;2022-12-18T03:02:26;-4.30;99.90
63966;DHT22;50151;52.030;5.350;2022-12-18T03:05:02;-4.30;99.90
63966;DHT22;50151;52.030;5.350;2022-12-18T03:07:58;-4.30;99.90
63966;DHT22;50151;52.030;5.350;2022-12-18T03:10:29;-4.30;99.90
63966;DHT22;50151;52.030;5.350;2022-12-18T03:13:07;-4.30;99.90
63966;DHT22;50151;52.030;5.350;2022-12-18T03:15:38;-4.30;99.90
63966;DHT22;50151;52.030;5.350;2022-12-18T03:18:14;-4.40;99.90
63966;DHT22;50151;52.030;5.350;2022-12-18T03:20:44;-4.30;99.90
63966;DHT22;50151;52.030;5.350;2022-12-18T03:23:16;-4.40;99.90
63966;DHT22;50151;52.030;5.350;2022-12-18T03:25:44;-4.50;99.90
63966;DHT22;50151;52.030;5.350;2022-12-18T03:28:15;-4.40;99.90
63966;DHT22;50151;52.030;5.350;2022-12-18T03:30:44;-4.50;99.90
63966;DHT22;50151;52.030;5.350;2022-12-18T03:33:18;-4.50;99.90
63966;DHT22;50151;52.030;5.350;2022-12-18T03:35:48;-4.60;99.90
63966;DHT22;50151;52.030;5.350;2022-12-18T03:38:15;-4.60;99.90
63966;DHT22;50151;52.030;5.350;2022-12-18T03:40:57;-4.60;99.90
63966;DHT22;50151;52.030;5.350;2022-12-18T03:47:14;-4.60;99.90
63966;DHT22;50151;52.030;5.350;2022-12-18T03:49:35;-4.70;99.90
63966;DHT22;50151;52.030;5.350;2022-12-18T03:52:32;-4.70;99.90
63966;DHT22;50151;52.030;5.350;2022-12-18T03:55:03;-4.70;99.90
63966;DHT22;50151;52.030;5.350;2022-12-18T03:57:32;-4.70;99.90
63966;DHT22;50151;52.030;5.350;2022-12-18T04:00:11;-4.70;99.90
63966;DHT22;50151;52.030;5.350;2022-12-18T04:02:41;-4.70;99.90
63966;DHT22;50151;52.030;5.350;2022-12-18T04:05:10;-4.80;99.90
63966;DHT22;50151;52.030;5.350;2022-12-18T04:07:38;-4.80;99.90
63966;DHT22;50151;52.030;5.350;2022-12-18T04:10:07;-4.70;99.90
63966;DHT22;50151;52.030;5.350;2022-12-18T04:12:34;-4.80;99.90
63966;DHT22;50151;52.030;5.350;2022-12-18T04:15:00;-4.90;99.90
63966;DHT22;50151;52.030;5.350;2022-12-18T04:17:27;-4.90;99.90
63966;DHT22;50151;52.030;5.350;2022-12-18T04:19:54;-4.90;99.90
63966;DHT22;50151;52.030;5.350;2022-12-18T04:22:20;-4.80;99.90
63966;DHT22;50151;52.030;5.350;2022-12-18T04:24:47;-4.90;99.90
63966;DHT22;50151;52.030;5.350;2022-12-18T04:27:14;-4.90;99.90
63966;DHT22;50151;52.030;5.350;2022-12-18T04:29:41;-4.90;99.90
63966;DHT22;50151;52.030;5.350;2022-12-18T04:32:08;-4.90;99.90
63966;DHT22;50151;52.030;5.350;2022-12-18T04:34:35;-4.90;99.90
63966;DHT22;50151;52.030;5.350;2022-12-18T04:37:02;-4.90;99.90
63966;DHT22;50151;52.030;5.350;2022-12-18T04:39:28;-4.90;99.90
63966;DHT22;50151;52.030;5.350;2022-12-18T04:41:55;-4.90;99.90
63966;DHT22;50151;52.030;5.350;2022-12-18T04:44:22;-4.90;99.90
63966;DHT22;50151;52.030;5.350;2022-12-18T04:46:49;-4.90;99.90
63966;DHT22;50151;52.030;5.350;2022-12-18T04:49:16;-4.90;99.90
63966;DHT22;50151;52.030;5.350;2022-12-18T04:51:42;-4.90;99.90
63966;DHT22;50151;52.030;5.350;2022-12-18T04:54:09;-4.90;99.90
63966;DHT22;50151;52.030;5.350;2022-12-18T04:56:36;-4.90;99.90
63966;DHT22;50151;52.030;5.350;2022-12-18T04:59:02;-4.90;99.90
63966;DHT22;50151;52.030;5.350;2022-12-18T05:01:29;-4.90;99.90
63966;DHT22;50151;52.030;5.350;2022-12-18T05:04:01;-5.00;99.90
63966;DHT22;50151;52.030;5.350;2022-12-18T05:06:28;-4.90;99.90
63966;DHT22;50151;52.030;5.350;2022-12-18T05:08:55;-4.90;99.90
63966;DHT22;50151;52.030;5.350;2022-12-18T05:11:21;-4.90;99.90
63966;DHT22;50151;52.030;5.350;2022-12-18T05:13:49;-4.90;99.90
63966;DHT22;50151;52.030;5.350;2022-12-18T05:16:15;-4.90;99.90
63966;DHT22;50151;52.030;5.350;2022-12-18T05:18:42;-5.00;99.90
63966;DHT22;50151;52.030;5.350;2022-12-18T05:21:09;-4.90;99.90
63966;DHT22;50151;52.030;5.350;2022-12-18T05:23:36;-5.00;99.90
63966;DHT22;50151;52.030;5.350;2022-12-18T05:26:05;-5.00;99.90
63966;DHT22;50151;52.030;5.350;2022-12-18T05:28:34;-5.00;99.90
63966;DHT22;50151;52.030;5.350;2022-12-18T05:31:03;-5.00;99.90
63966;DHT22;50151;52.030;5.350;2022-12-18T05:33:32;-5.00;99.90
63966;DHT22;50151;52.030;5.350;2022-12-18T05:36:02;-5.10;99.90
63966;DHT22;50151;52.030;5.350;2022-12-18T05:38:31;-5.00;99.90
63966;DHT22;50151;52.030;5.350;2022-12-18T05:40:58;-5.00;99.90
63966;DHT22;50151;52.030;5.350;2022-12-18T05:43:26;-5.10;99.90
63966;DHT22;50151;52.030;5.350;2022-12-18T05:45:53;-5.10;99.90
63966;DHT22;50151;52.030;5.350;2022-12-18T05:48:20;-5.10;99.90
63966;DHT22;50151;52.030;5.350;2022-12-18T05:50:48;-5.10;99.90
63966;DHT22;50151;52.030;5.350;2022-12-18T05:53:18;-5.10;99.90
63966;DHT22;50151;52.030;5.350;2022-12-18T05:55:46;-5.10;99.90
63966;DHT22;50151;52.030;5.350;2022-12-18T05:58:14;-5.10;99.90
63966;DHT22;50151;52.030;5.350;2022-12-18T06:00:43;-5.10;99.90
63966;DHT22;50151;52.030;5.350;2022-12-18T06:03:11;-5.10;99.90
63966;DHT22;50151;52.030;5.350;2022-12-18T06:05:41;-5.10;99.90
63966;DHT22;50151;52.030;5.350;2022-12-18T06:08:08;-5.20;99.90
63966;DHT22;50151;52.030;5.350;2022-12-18T06:10:36;-5.20;99.90
63966;DHT22;50151;52.030;5.350;2022-12-18T06:13:03;-5.10;99.90
63966;DHT22;50151;52.030;5.350;2022-12-18T06:15:30;-5.20;99.90
63966;DHT22;50151;52.030;5.350;2022-12-18T06:17:57;-5.20;99.90
63966;DHT22;50151;52.030;5.350;2022-12-18T06:20:24;-5.20;99.90
63966;DHT22;50151;52.030;5.350;2022-12-18T06:22:57;-5.20;99.90
63966;DHT22;50151;52.030;5.350;2022-12-18T06:25:23;-5.20;99.90
63966;DHT22;50151;52.030;5.350;2022-12-18T06:27:50;-5.20;99.90
63966;DHT22;50151;52.030;5.350;2022-12-18T06:30:17;-5.20;99.90
63966;DHT22;50151;52.030;5.350;2022-12-18T06:32:43;-5.20;99.90
63966;DHT22;50151;52.030;5.350;2022-12-18T06:35:14;-5.10;99.90
63966;DHT22;50151;52.030;5.350;2022-12-18T06:37:40;-5.10;99.90
63966;DHT22;50151;52.030;5.350;2022-12-18T06:40:07;-5.10;99.90
63966;DHT22;50151;52.030;5.350;2022-12-18T06:42:34;-5.20;99.90
63966;DHT22;50151;52.030;5.350;2022-12-18T06:45:01;-5.10;99.90
63966;DHT22;50151;52.030;5.350;2022-12-18T06:47:27;-5.10;99.90
63966;DHT22;50151;52.030;5.350;2022-12-18T06:49:54;-5.10;99.90
63966;DHT22;50151;52.030;5.350;2022-12-18T06:52:21;-5.20;99.90
63966;DHT22;50151;52.030;5.350;2022-12-18T06:54:49;-5.10;99.90
63966;DHT22;50151;52.030;5.350;2022-12-18T06:57:15;-5.10;99.90
63966;DHT22;50151;52.030;5.350;2022-12-18T06:59:42;-5.10;99.90
63966;DHT22;50151;52.030;5.350;2022-12-18T07:02:11;-5.10;99.90
63966;DHT22;50151;52.030;5.350;2022-12-18T07:04:39;-5.10;99.90
63966;DHT22;50151;52.030;5.350;2022-12-18T07:07:05;-5.10;99.90
63966;DHT22;50151;52.030;5.350;2022-12-18T07:09:32;-5.10;99.90
63966;DHT22;50151;52.030;5.350;2022-12-18T07:11:59;-5.10;99.90
63966;DHT22;50151;52.030;5.350;2022-12-18T07:14:26;-5.10;99.90
63966;DHT22;50151;52.030;5.350;2022-12-18T07:16:53;-5.10;99.90
63966;DHT22;50151;52.030;5.350;2022-12-18T07:19:20;-5.10;99.90
63966;DHT22;50151;52.030;5.350;2022-12-18T07:21:47;-5.10;99.90
63966;DHT22;50151;52.030;5.350;2022-12-18T07:24:13;-5.10;99.90
63966;DHT22;50151;52.030;5.350;2022-12-18T07:26:40;-5.10;99.90
63966;DHT22;50151;52.030;5.350;2022-12-18T07:29:07;-5.00;99.90
63966;DHT22;50151;52.030;5.350;2022-12-18T07:31:34;-5.00;99.90
63966;DHT22;50151;52.030;5.350;2022-12-18T07:34:01;-5.00;99.90
63966;DHT22;50151;52.030;5.350;2022-12-18T07:36:27;-5.00;99.90
63966;DHT22;50151;52.030;5.350;2022-12-18T07:38:54;-5.00;99.90
63966;DHT22;50151;52.030;5.350;2022-12-18T07:41:21;-5.00;99.90
63966;DHT22;50151;52.030;5.350;2022-12-18T07:43:48;-5.00;99.90
63966;DHT22;50151;52.030;5.350;2022-12-18T07:46:15;-5.00;99.90
63966;DHT22;50151;52.030;5.350;2022-12-18T07:48:43;-5.00;99.90
63966;DHT22;50151;52.030;5.350;2022-12-18T07:51:15;-5.00;99.90
63966;DHT22;50151;52.030;5.350;2022-12-18T07:53:42;-4.90;99.90
63966;DHT22;50151;52.030;5.350;2022-12-18T07:56:11;-4.90;99.90
63966;DHT22;50151;52.030;5.350;2022-12-18T07:58:56;-4.90;99.90
63966;DHT22;50151;52.030;5.350;2022-12-18T08:01:23;-4.80;99.90
63966;DHT22;50151;52.030;5.350;2022-12-18T08:03:50;-4.80;99.90
63966;DHT22;50151;52.030;5.350;2022-12-18T08:06:18;-4.80;99.90
63966;DHT22;50151;52.030;5.350;2022-12-18T08:08:53;-4.70;99.90
63966;DHT22;50151;52.030;5.350;2022-12-18T08:11:22;-4.70;99.90
63966;DHT22;50151;52.030;5.350;2022-12-18T08:13:49;-4.60;99.90
63966;DHT22;50151;52.030;5.350;2022-12-18T08:16:16;-4.60;99.90
63966;DHT22;50151;52.030;5.350;2022-12-18T08:18:43;-4.50;99.90
63966;DHT22;50151;52.030;5.350;2022-12-18T08:21:15;-4.50;99.90
63966;DHT22;50151;52.030;5.350;2022-12-18T08:23:42;-4.40;99.90
63966;DHT22;50151;52.030;5.350;2022-12-18T08:26:11;-4.40;99.90
63966;DHT22;50151;52.030;5.350;2022-12-18T08:28:38;-4.30;99.90
63966;DHT22;50151;52.030;5.350;2022-12-18T08:31:05;-4.30;99.90
63966;DHT22;50151;52.030;5.350;2022-12-18T08:33:33;-4.30;99.90
63966;DHT22;50151;52.030;5.350;2022-12-18T08:36:00;-4.30;99.90
63966;DHT22;50151;52.030;5.350;2022-12-18T08:38:27;-4.30;99.90
63966;DHT22;50151;52.030;5.350;2022-12-18T08:41:05;-4.30;99.90
63966;DHT22;50151;52.030;5.350;2022-12-18T08:43:32;-4.30;99.90
63966;DHT22;50151;52.030;5.350;2022-12-18T08:46:18;-4.20;99.90
63966;DHT22;50151;52.030;5.350;2022-12-18T08:48:45;-4.20;99.90
63966;DHT22;50151;52.030;5.350;2022-12-18T08:51:12;-4.20;99.90
63966;DHT22;50151;52.030;5.350;2022-12-18T08:53:39;-4.20;99.90
63966;DHT22;50151;52.030;5.350;2022-12-18T08:56:07;-4.20;99.90
63966;DHT22;50151;52.030;5.350;2022-12-18T08:58:34;-4.10;99.90
63966;DHT22;50151;52.030;5.350;2022-12-18T09:01:06;-4.10;99.90
63966;DHT22;50151;52.030;5.350;2022-12-18T09:03:33;-4.10;99.90
63966;DHT22;50151;52.030;5.350;2022-12-18T09:06:00;-4.00;99.90
63966;DHT22;50151;52.030;5.350;2022-12-18T09:08:27;-4.00;99.90
63966;DHT22;50151;52.030;5.350;2022-12-18T09:10:54;-4.00;99.90
63966;DHT22;50151;52.030;5.350;2022-12-18T09:13:21;-3.90;99.90
63966;DHT22;50151;52.030;5.350;2022-12-18T09:15:51;-3.90;99.90
63966;DHT22;50151;52.030;5.350;2022-12-18T09:18:20;-3.80;99.90
63966;DHT22;50151;52.030;5.350;2022-12-18T09:20:47;-3.80;99.90
63966;DHT22;50151;52.030;5.350;2022-12-18T09:23:14;-3.70;99.90
63966;DHT22;50151;52.030;5.350;2022-12-18T09:25:40;-3.70;99.90
63966;DHT22;50151;52.030;5.350;2022-12-18T09:28:13;-3.70;99.90
63966;DHT22;50151;52.030;5.350;2022-12-18T09:30:43;-3.70;99.90
63966;DHT22;50151;52.030;5.350;2022-12-18T09:33:10;-3.60;99.90
63966;DHT22;50151;52.030;5.350;2022-12-18T09:35:40;-3.60;99.90
63966;DHT22;50151;52.030;5.350;2022-12-18T09:38:09;-3.50;99.90
63966;DHT22;50151;52.030;5.350;2022-12-18T09:40:46;-3.50;99.90
63966;DHT22;50151;52.030;5.350;2022-12-18T09:43:20;-3.40;99.90
63966;DHT22;50151;52.030;5.350;2022-12-18T09:45:55;-3.40;99.90
63966;DHT22;50151;52.030;5.350;2022-12-18T09:48:29;-3.30;99.90
63966;DHT22;50151;52.030;5.350;2022-12-18T09:51:11;-3.30;99.90
63966;DHT22;50151;52.030;5.350;2022-12-18T09:53:38;-3.30;99.90
63966;DHT22;50151;52.030;5.350;2022-12-18T09:56:16;-3.20;99.90
63966;DHT22;50151;52.030;5.350;2022-12-18T09:59:01;-3.20;99.90
63966;DHT22;50151;52.030;5.350;2022-12-18T10:01:29;-3.10;99.90
63966;DHT22;50151;52.030;5.350;2022-12-18T10:04:09;-3.10;99.90
63966;DHT22;50151;52.030;5.350;2022-12-18T10:12:13;-2.90;99.90
63966;DHT22;50151;52.030;5.350;2022-12-18T10:14:57;-2.90;99.90
63966;DHT22;50151;52.030;5.350;2022-12-18T10:17:55;-2.80;99.90
63966;DHT22;50151;52.030;5.350;2022-12-18T10:20:32;-2.80;99.90
63966;DHT22;50151;52.030;5.350;2022-12-18T10:23:04;-2.70;99.90
63966;DHT22;50151;52.030;5.350;2022-12-18T10:26:02;-2.70;99.90
63966;DHT22;50151;52.030;5.350;2022-12-18T10:28:31;-2.60;99.90
63966;DHT22;50151;52.030;5.350;2022-12-18T10:30:58;-2.60;99.90
63966;DHT22;50151;52.030;5.350;2022-12-18T10:33:29;-2.50;99.90
63966;DHT22;50151;52.030;5.350;2022-12-18T10:35:56;-2.50;99.90
63966;DHT22;50151;52.030;5.350;2022-12-18T10:38:31;-2.50;99.90
63966;DHT22;50151;52.030;5.350;2022-12-18T10:41:08;-2.40;99.90
63966;DHT22;50151;52.030;5.350;2022-12-18T10:44:16;-2.40;99.90
63966;DHT22;50151;52.030;5.350;2022-12-18T10:46:45;-2.30;99.90
63966;DHT22;50151;52.030;5.350;2022-12-18T10:49:22;-2.30;99.90
63966;DHT22;50151;52.030;5.350;2022-12-18T10:51:50;-2.20;99.90
63966;DHT22;50151;52.030;5.350;2022-12-18T10:54:19;-2.20;99.90
63966;DHT22;50151;52.030;5.350;2022-12-18T10:56:47;-2.20;99.90
63966;DHT22;50151;52.030;5.350;2022-12-18T10:59:16;-2.10;99.90
63966;DHT22;50151;52.030;5.350;2022-12-18T11:01:57;-2.00;99.90
63966;DHT22;50151;52.030;5.350;2022-12-18T11:04:26;-2.00;99.90
63966;DHT22;50151;52.030;5.350;2022-12-18T11:07:04;-2.00;99.90
63966;DHT22;50151;52.030;5.350;2022-12-18T11:09:33;-1.90;99.90
63966;DHT22;50151;52.030;5.350;2022-12-18T11:12:02;-1.90;99.90
63966;DHT22;50151;52.030;5.350;2022-12-18T11:14:42;-1.80;99.90
63966;DHT22;50151;52.030;5.350;2022-12-18T11:17:31;-1.80;99.90
63966;DHT22;50151;52.030;5.350;2022-12-18T11:20:00;-1.70;99.90
63966;DHT22;50151;52.030;5.350;2022-12-18T11:22:31;-1.70;99.90
63966;DHT22;50151;52.030;5.350;2022-12-18T11:25:07;-1.60;99.90
63966;DHT22;50151;52.030;5.350;2022-12-18T11:28:04;-1.60;99.90
63966;DHT22;50151;52.030;5.350;2022-12-18T11:30:34;-1.50;99.90
63966;DHT22;50151;52.030;5.350;2022-12-18T11:35:56;-1.50;99.90
63966;DHT22;50151;52.030;5.350;2022-12-18T11:38:34;-1.40;99.90
63966;DHT22;50151;52.030;5.350;2022-12-18T11:41:23;-1.40;99.90
63966;DHT22;50151;52.030;5.350;2022-12-18T11:44:15;-1.40;99.90
63966;DHT22;50151;52.030;5.350;2022-12-18T11:46:51;-1.30;99.90
63966;DHT22;50151;52.030;5.350;2022-12-18T11:49:26;-1.30;99.90
63966;DHT22;50151;52.030;5.350;2022-12-18T11:55:00;-1.20;99.90
63966;DHT22;50151;52.030;5.350;2022-12-18T12:00:19;-1.20;99.90
63966;DHT22;50151;52.030;5.350;2022-12-18T12:03:15;-1.20;99.90
63966;DHT22;50151;52.030;5.350;2022-12-18T12:08:41;-1.10;99.90
63966;DHT22;50151;52.030;5.350;2022-12-18T12:11:16;-1.10;99.90
63966;DHT22;50151;52.030;5.350;2022-12-18T12:19:38;-1.00;99.90
63966;DHT22;50151;52.030;5.350;2022-12-18T12:24:55;-0.90;99.90
63966;DHT22;50151;52.030;5.350;2022-12-18T12:27:30;-0.90;99.90
63966;DHT22;50151;52.030;5.350;2022-12-18T12:30:13;-0.90;99.90
63966;DHT22;50151;52.030;5.350;2022-12-18T12:38:41;-0.80;99.90
63966;DHT22;50151;52.030;5.350;2022-12-18T12:41:21;-0.80;99.90
63966;DHT22;50151;52.030;5.350;2022-12-18T12:44:15;-0.80;99.90
63966;DHT22;50151;52.030;5.350;2022-12-18T12:46:43;-0.80;99.90
63966;DHT22;50151;52.030;5.350;2022-12-18T12:49:15;-0.80;99.90
63966;DHT22;50151;52.030;5.350;2022-12-18T12:51:47;-0.70;99.90
63966;DHT22;50151;52.030;5.350;2022-12-18T12:54:20;-0.70;99.90
63966;DHT22;50151;52.030;5.350;2022-12-18T13:02:29;-0.70;99.90
63966;DHT22;50151;52.030;5.350;2022-12-18T13:07:34;-0.60;99.80
63966;DHT22;50151;52.030;5.350;2022-12-18T13:13:04;-0.60;99.70
63966;DHT22;50151;52.030;5.350;2022-12-18T13:15:41;-0.50;99.70
63966;DHT22;50151;52.030;5.350;2022-12-18T13:18:21;-0.60;99.30
63966;DHT22;50151;52.030;5.350;2022-12-18T13:25:59;-0.50;99.00
63966;DHT22;50151;52.030;5.350;2022-12-18T13:28:54;-0.50;99.20
63966;DHT22;50151;52.030;5.350;2022-12-18T13:34:19;-0.50;99.40
63966;DHT22;50151;52.030;5.350;2022-12-18T13:36:57;-0.50;99.50
63966;DHT22;50151;52.030;5.350;2022-12-18T13:39:43;-0.50;99.40
63966;DHT22;50151;52.030;5.350;2022-12-18T13:44:57;-0.40;98.70
63966;DHT22;50151;52.030;5.350;2022-12-18T13:47:36;-0.40;99.00
63966;DHT22;50151;52.030;5.350;2022-12-18T13:50:24;-0.40;99.10
63966;DHT22;50151;52.030;5.350;2022-12-18T13:53:00;-0.40;99.20
63966;DHT22;50151;52.030;5.350;2022-12-18T13:55:29;-0.40;99.20
63966;DHT22;50151;52.030;5.350;2022-12-18T13:58:05;-0.40;99.10
63966;DHT22;50151;52.030;5.350;2022-12-18T14:00:33;-0.40;99.10
63966;DHT22;50151;52.030;5.350;2022-12-18T14:03:00;-0.40;98.90
63966;DHT22;50151;52.030;5.350;2022-12-18T14:05:32;-0.40;99.10
63966;DHT22;50151;52.030;5.350;2022-12-18T14:08:08;-0.40;99.20
63966;DHT22;50151;52.030;5.350;2022-12-18T14:10:44;-0.40;98.90
63966;DHT22;50151;52.030;5.350;2022-12-18T14:13:29;-0.30;99.10
63966;DHT22;50151;52.030;5.350;2022-12-18T14:15:57;-0.30;98.90
63966;DHT22;50151;52.030;5.350;2022-12-18T14:18:44;-0.30;98.50
63966;DHT22;50151;52.030;5.350;2022-12-18T14:21:19;-0.30;98.50
63966;DHT22;50151;52.030;5.350;2022-12-18T14:23:47;-0.30;98.40
63966;DHT22;50151;52.030;5.350;2022-12-18T14:26:28;-0.30;98.40
63966;DHT22;50151;52.030;5.350;2022-12-18T14:28:57;-0.30;98.50
63966;DHT22;50151;52.030;5.350;2022-12-18T14:31:27;-0.30;98.40
63966;DHT22;50151;52.030;5.350;2022-12-18T14:33:55;-0.30;98.50
63966;DHT22;50151;52.030;5.350;2022-12-18T14:36:27;-0.30;98.10
63966;DHT22;50151;52.030;5.350;2022-12-18T14:38:58;-0.30;98.10
63966;DHT22;50151;52.030;5.350;2022-12-18T14:41:26;-0.30;98.00
63966;DHT22;50151;52.030;5.350;2022-12-18T14:43:54;-0.20;98.10
63966;DHT22;50151;52.030;5.350;2022-12-18T14:46:48;-0.30;98.10
63966;DHT22;50151;52.030;5.350;2022-12-18T14:49:31;-0.30;98.30
63966;DHT22;50151;52.030;5.350;2022-12-18T14:52:04;-0.30;98.00
63966;DHT22;50151;52.030;5.350;2022-12-18T14:54:34;-0.30;98.10
63966;DHT22;50151;52.030;5.350;2022-12-18T14:59:30;-0.30;97.60
63966;DHT22;50151;52.030;5.350;2022-12-18T15:04:43;-0.30;97.60
63966;DHT22;50151;52.030;5.350;2022-12-18T15:10:10;-0.20;97.50
63966;DHT22;50151;52.030;5.350;2022-12-18T15:23:17;-0.20;97.60
63966;DHT22;50151;52.030;5.350;2022-12-18T15:25:45;-0.20;97.50
63966;DHT22;50151;52.030;5.350;2022-12-18T15:28:21;-0.20;97.70
63966;DHT22;50151;52.030;5.350;2022-12-18T15:31:04;-0.20;97.60
63966;DHT22;50151;52.030;5.350;2022-12-18T15:33:34;-0.20;97.70
63966;DHT22;50151;52.030;5.350;2022-12-18T15:36:09;-0.20;98.10
63966;DHT22;50151;52.030;5.350;2022-12-18T15:38:36;-0.20;97.80
63966;DHT22;50151;52.030;5.350;2022-12-18T15:41:02;-0.20;97.60
63966;DHT22;50151;52.030;5.350;2022-12-18T15:43:30;-0.20;97.60
63966;DHT22;50151;52.030;5.350;2022-12-18T15:46:14;-0.20;97.60
63966;DHT22;50151;52.030;5.350;2022-12-18T15:48:49;-0.20;97.70
63966;DHT22;50151;52.030;5.350;2022-12-18T15:51:19;-0.20;97.40
63966;DHT22;50151;52.030;5.350;2022-12-18T15:53:48;-0.20;97.50
63966;DHT22;50151;52.030;5.350;2022-12-18T15:56:16;-0.20;97.50
63966;DHT22;50151;52.030;5.350;2022-12-18T15:59:04;-0.20;97.30
63966;DHT22;50151;52.030;5.350;2022-12-18T16:01:33;-0.20;97.30
63966;DHT22;50151;52.030;5.350;2022-12-18T16:04:13;-0.30;97.50
63966;DHT22;50151;52.030;5.350;2022-12-18T16:06:41;-0.30;97.60
63966;DHT22;50151;52.030;5.350;2022-12-18T16:09:28;-0.30;97.50
63966;DHT22;50151;52.030;5.350;2022-12-18T16:11:55;-0.20;97.60
63966;DHT22;50151;52.030;5.350;2022-12-18T16:14:31;-0.30;97.60
63966;DHT22;50151;52.030;5.350;2022-12-18T16:17:03;-0.20;98.00
63966;DHT22;50151;52.030;5.350;2022-12-18T16:19:31;-0.30;97.80
63966;DHT22;50151;52.030;5.350;2022-12-18T16:21:58;-0.20;98.20
63966;DHT22;50151;52.030;5.350;2022-12-18T16:24:28;-0.20;97.90
63966;DHT22;50151;52.030;5.350;2022-12-18T16:26:57;-0.30;98.40
63966;DHT22;50151;52.030;5.350;2022-12-18T16:29:26;-0.20;97.80
63966;DHT22;50151;52.030;5.350;2022-12-18T16:32:00;-0.30;98.00
63966;DHT22;50151;52.030;5.350;2022-12-18T16:34:29;-0.20;97.60
63966;DHT22;50151;52.030;5.350;2022-12-18T16:37:04;-0.20;98.10
63966;DHT22;50151;52.030;5.350;2022-12-18T16:39:35;-0.20;98.00
63966;DHT22;50151;52.030;5.350;2022-12-18T16:42:13;-0.20;97.80
63966;DHT22;50151;52.030;5.350;2022-12-18T16:44:43;-0.20;97.70
63966;DHT22;50151;52.030;5.350;2022-12-18T16:47:11;-0.20;97.90
63966;DHT22;50151;52.030;5.350;2022-12-18T16:49:40;-0.20;97.70
63966;DHT22;50151;52.030;5.350;2022-12-18T16:52:07;-0.20;97.50
63966;DHT22;50151;52.030;5.350;2022-12-18T16:54:34;-0.20;97.50
63966;DHT22;50151;52.030;5.350;2022-12-18T16:57:03;-0.20;97.40
63966;DHT22;50151;52.030;5.350;2022-12-18T16:59:34;-0.20;97.50
63966;DHT22;50151;52.030;5.350;2022-12-18T17:02:04;-0.20;97.80
63966;DHT22;50151;52.030;5.350;2022-12-18T17:04:32;-0.20;97.20
63966;DHT22;50151;52.030;5.350;2022-12-18T17:06:59;-0.20;97.40
63966;DHT22;50151;52.030;5.350;2022-12-18T17:09:26;-0.20;97.30
63966;DHT22;50151;52.030;5.350;2022-12-18T17:11:53;-0.20;97.40
63966;DHT22;50151;52.030;5.350;2022-12-18T17:14:22;-0.10;97.30
63966;DHT22;50151;52.030;5.350;2022-12-18T17:16:50;-0.10;97.30
63966;DHT22;50151;52.030;5.350;2022-12-18T17:19:37;-0.20;97.30
63966;DHT22;50151;52.030;5.350;2022-12-18T17:22:04;-0.10;97.50
63966;DHT22;50151;52.030;5.350;2022-12-18T17:24:31;-0.10;97.40
63966;DHT22;50151;52.030;5.350;2022-12-18T17:27:01;-0.20;97.30